Time;durP1;ratioP1;P1;durP2;ratioP2;P2;SDS_P1;SDS_P2;PMS_P1;PMS_P2;Temp;Humidity;BMP_temperature;BMP_pressure;BME280_temperature;BME280_humidity;BME280_pressure;Samples;Min_cycle;Max_cycle;Signal;HPM_P1;HPM_P2
2022/04/05 00:01:07;;;;;;;14.50;3.27;;;;;;;7.19;100.00;100238.13;4988578;28;20284;-74
2022/04/05 00:03:32;;;;;;;17.13;3.70;;;;;;;7.34;100.00;100265.56;4995027;28;20193;-73
2022/04/05 00:05:58;;;;;;;24.13;3.93;;;;;;;7.35;100.00;100251.22;4993895;28;20272;-73
2022/04/05 00:08:23;;;;;;;11.57;2.70;;;;;;;7.46;100.00;100282.72;4997612;28;20213;-75
2022/04/05 00:10:49;;;;;;;10.97;2.73;;;;;;;6.25;100.00;100131.56;4993842;28;20177;-74
2022/04/05 00:13:14;;;;;;;16.50;2.47;;;;;;;7.43;100.00;100291.13;4987679;28;20564;-74
2022/04/05 00:15:40;;;;;;;10.40;2.23;;;;;;;7.11;100.00;100248.94;4990450;28;20806;-73
2022/04/05 00:18:05;;;;;;;13.10;2.20;;;;;;;7.14;100.00;100256.53;4991846;28;20230;-74
2022/04/05 00:20:31;;;;;;;10.30;2.80;;;;;;;7.30;100.00;100300.81;4994656;28;20681;-75
2022/04/05 00:22:58;;;;;;;10.67;2.57;;;;;;;6.84;100.00;100216.66;4994369;28;20196;-74
2022/04/05 00:25:24;;;;;;;5.70;2.17;;;;;;;6.70;100.00;100177.56;4993000;28;20272;-75
2022/04/05 00:27:49;;;;;;;6.87;2.30;;;;;;;6.75;100.00;100201.81;4992374;28;20527;-74
2022/04/05 00:30:15;;;;;;;11.67;2.43;;;;;;;7.25;100.00;100283.53;4989420;28;20205;-75
2022/04/05 00:32:41;;;;;;;6.70;1.47;;;;;;;6.28;100.00;100121.41;4988486;28;20251;-74
2022/04/05 00:35:08;;;;;;;11.20;1.90;;;;;;;6.99;100.00;100230.75;4988845;28;20190;-75
2022/04/05 00:37:34;;;;;;;6.60;1.63;;;;;;;7.23;100.00;100287.41;4991273;28;20562;-74
2022/04/05 00:40:00;;;;;;;12.87;2.27;;;;;;;7.36;100.00;100279.53;5015807;23;20500;-72
2022/04/05 00:42:26;;;;;;;8.53;1.33;;;;;;;7.14;100.00;100249.38;5015433;28;20493;-72
2022/04/05 00:44:51;;;;;;;6.93;2.13;;;;;;;7.31;100.00;100279.28;5015180;28;20513;-72
2022/04/05 00:47:21;;;;;;;8.10;1.80;;;;;;;7.30;100.00;100290.16;5015685;28;20737;-71
2022/04/05 00:49:48;;;;;;;11.83;1.90;;;;;;;7.27;100.00;100291.34;5017887;28;20208;-71
2022/04/05 00:52:16;;;;;;;10.97;1.87;;;;;;;7.33;100.00;100290.59;5014907;28;20489;-72
2022/04/05 00:54:43;;;;;;;6.87;1.63;;;;;;;7.34;100.00;100294.09;5018525;28;20446;-72
2022/04/05 00:57:13;;;;;;;5.53;1.67;;;;;;;7.30;100.00;100296.31;5016248;28;20490;-72
2022/04/05 00:59:44;;;;;;;9.63;2.13;;;;;;;7.26;100.00;100289.69;5017844;28;20560;-72
2022/04/05 01:02:14;;;;;;;8.67;2.10;;;;;;;7.07;100.00;100258.34;5016150;28;20440;-72
2022/04/05 01:04:45;;;;;;;9.70;2.60;;;;;;;6.94;100.00;100269.66;5021880;28;20943;-72
2022/04/05 01:07:15;;;;;;;9.20;1.70;;;;;;;7.15;100.00;100285.72;5017884;28;20441;-72
2022/04/05 01:09:41;;;;;;;11.97;2.30;;;;;;;7.01;100.00;100251.91;5015323;28;20998;-72
2022/04/05 01:12:08;;;;;;;5.37;1.50;;;;;;;7.24;100.00;100300.56;5015223;28;20439;-72
2022/04/05 01:14:34;;;;;;;8.83;2.00;;;;;;;7.13;100.00;100287.72;5019336;28;20250;-72
2022/04/05 01:16:59;;;;;;;5.40;2.07;;;;;;;7.29;100.00;100318.69;5013205;28;20428;-72
2022/04/05 01:19:26;;;;;;;12.93;1.77;;;;;;;7.12;100.00;100310.09;5012346;28;20216;-72
2022/04/05 01:21:51;;;;;;;7.40;1.60;;;;;;;7.21;100.00;100308.94;5018391;28;20236;-72
2022/04/05 01:24:16;;;;;;;5.53;1.70;;;;;;;7.15;100.00;100299.03;5014856;28;20539;-72
2022/04/05 01:26:44;;;;;;;12.23;2.37;;;;;;;6.97;100.00;100290.63;5018380;28;20185;-72
2022/04/05 01:29:10;;;;;;;9.10;2.27;;;;;;;7.10;100.00;100329.97;5019069;28;20204;-72
2022/04/05 01:31:47;;;;;;;7.50;1.77;;;;;;;7.13;100.00;100318.91;5018709;28;20450;-72
2022/04/05 01:34:14;;;;;;;6.23;1.40;;;;;;;7.06;100.00;100318.84;5015786;28;20442;-72
2022/04/05 01:36:45;;;;;;;4.13;1.30;;;;;;;6.80;100.00;100311.38;5019646;28;20474;-72
2022/04/05 01:39:17;;;;;;;6.37;1.67;;;;;;;6.95;100.00;100325.50;5015854;28;20495;-72
2022/04/05 01:41:42;;;;;;;8.20;1.43;;;;;;;7.06;100.00;100312.66;5019365;28;20439;-72
2022/04/05 01:44:10;;;;;;;6.67;1.47;;;;;;;7.04;100.00;100325.38;5017048;28;20974;-72
2022/04/05 01:46:35;;;;;;;4.27;1.63;;;;;;;6.90;100.00;100290.56;5015581;28;20188;-72
2022/04/05 01:49:04;;;;;;;3.67;1.40;;;;;;;6.91;100.00;100328.69;5018479;28;20993;-72
2022/04/05 01:51:30;;;;;;;4.33;1.23;;;;;;;6.72;100.00;100271.50;5017914;28;20216;-72
2022/04/05 01:53:58;;;;;;;7.50;1.30;;;;;;;6.78;100.00;100302.72;5017126;28;20494;-72
2022/04/05 01:56:23;;;;;;;7.97;1.80;;;;;;;6.91;100.00;100326.03;5020531;28;26280;-72
2022/04/05 01:58:49;;;;;;;8.20;1.60;;;;;;;6.81;100.00;100297.03;5019427;28;20474;-71
2022/04/05 02:01:14;;;;;;;4.43;1.53;;;;;;;6.84;100.00;100306.50;5012177;28;20202;-73
2022/04/05 02:03:40;;;;;;;8.70;1.40;;;;;;;7.04;100.00;100330.72;5015875;28;20244;-72
2022/04/05 02:06:05;;;;;;;5.17;1.50;;;;;;;6.59;100.00;100274.00;5019237;28;20307;-71
2022/04/05 02:08:31;;;;;;;7.73;1.73;;;;;;;6.85;100.00;100327.59;5019973;28;20216;-72
2022/04/05 02:10:57;;;;;;;7.90;1.50;;;;;;;6.66;100.00;100329.03;5014973;28;21192;-72
2022/04/05 02:13:22;;;;;;;3.87;1.00;;;;;;;6.50;100.00;100348.69;5020882;28;20481;-72
2022/04/05 02:15:47;;;;;;;6.30;1.90;;;;;;;6.73;100.00;100332.59;5017484;28;20557;-72
2022/04/05 02:18:13;;;;;;;7.00;1.67;;;;;;;6.83;100.00;100343.00;5014007;28;20242;-72
2022/04/05 02:20:39;;;;;;;4.37;1.47;;;;;;;6.89;100.00;100336.91;5016204;28;20295;-71
2022/04/05 02:23:05;;;;;;;3.40;1.30;;;;;;;6.53;100.00;100315.53;5015340;28;20227;-71
2022/04/05 02:25:31;;;;;;;6.37;1.57;;;;;;;6.67;100.00;100345.84;5018122;28;20550;-72
2022/04/05 02:27:56;;;;;;;7.33;1.43;;;;;;;6.54;100.00;100296.72;5015317;28;20211;-71
2022/04/05 02:30:21;;;;;;;4.40;1.23;;;;;;;6.81;100.00;100326.34;5016332;28;20965;-71
2022/04/05 02:32:47;;;;;;;5.90;1.40;;;;;;;6.78;100.00;100343.53;5013831;28;20291;-71
2022/04/05 02:35:12;;;;;;;4.30;1.20;;;;;;;6.88;100.00;100347.75;5015499;28;20677;-72
2022/04/05 02:37:38;;;;;;;5.83;1.67;;;;;;;6.91;100.00;100350.03;5019688;28;20223;-71
2022/04/05 02:40:04;;;;;;;5.13;1.30;;;;;;;6.89;100.00;100336.09;5013324;28;20219;-71
2022/04/05 02:42:30;;;;;;;6.30;1.67;;;;;;;6.50;100.00;100306.06;5017401;28;20188;-72
2022/04/05 02:44:55;;;;;;;7.83;1.60;;;;;;;6.68;100.00;100304.84;5014053;28;20474;-71
2022/04/05 02:47:22;;;;;;;8.57;1.43;;;;;;;6.95;100.00;100354.00;5012104;28;22232;-72
2022/04/05 02:49:47;;;;;;;5.50;1.37;;;;;;;6.85;100.00;100340.94;5008315;28;20208;-71
2022/04/05 02:52:15;;;;;;;4.60;1.43;;;;;;;6.94;100.00;100357.66;5010786;28;20453;-71
2022/04/05 02:54:41;;;;;;;5.23;1.50;;;;;;;6.77;100.00;100341.88;5013317;28;20181;-71
2022/04/05 02:57:06;;;;;;;7.80;1.30;;;;;;;6.84;100.00;100355.28;5016182;28;20439;-71
2022/04/05 02:59:32;;;;;;;8.43;1.93;;;;;;;6.65;100.00;100316.69;5013240;28;20483;-72
2022/04/05 03:01:57;;;;;;;6.77;1.90;;;;;;;6.72;100.00;100340.78;5014759;28;20238;-72
2022/04/05 03:04:22;;;;;;;8.30;1.70;;;;;;;6.66;100.00;100305.06;5011125;28;20196;-71
2022/04/05 03:06:48;;;;;;;4.80;1.30;;;;;;;7.02;100.00;100347.72;5018360;28;20188;-71
2022/04/05 03:09:13;;;;;;;11.13;1.77;;;;;;;6.78;100.00;100354.19;5014782;28;20274;-71
2022/04/05 03:11:39;;;;;;;4.43;1.33;;;;;;;6.64;100.00;100320.38;5016395;28;20832;-71
2022/04/05 03:14:04;;;;;;;7.27;1.77;;;;;;;6.98;100.00;100356.28;5017577;28;20196;-71
2022/04/05 03:16:29;;;;;;;6.17;1.50;;;;;;;6.51;100.00;100307.72;5018077;28;20192;-71
2022/04/05 03:18:55;;;;;;;6.17;1.50;;;;;;;6.62;100.00;100319.75;5009925;28;20254;-71
2022/04/05 03:21:20;;;;;;;5.73;1.60;;;;;;;6.93;100.00;100358.69;5015093;28;22255;-71
2022/04/05 03:23:45;;;;;;;3.57;1.20;;;;;;;6.93;100.00;100364.84;5018563;28;20618;-71
2022/04/05 03:26:11;;;;;;;9.30;2.03;;;;;;;6.74;100.00;100331.59;5012470;28;20201;-71
2022/04/05 03:28:36;;;;;;;5.60;1.70;;;;;;;6.41;100.00;100307.19;5013587;28;21155;-71
2022/04/05 03:31:02;;;;;;;8.23;1.80;;;;;;;6.80;100.00;100351.34;5012269;28;20188;-71
2022/04/05 03:33:27;;;;;;;7.30;1.60;;;;;;;6.95;100.00;100370.00;5014334;28;20209;-71
2022/04/05 03:35:55;;;;;;;7.37;1.43;;;;;;;7.01;100.00;100366.56;5013131;28;20192;-71
2022/04/05 03:38:20;;;;;;;8.83;1.77;;;;;;;6.77;100.00;100339.22;5013865;28;20331;-71
2022/04/05 03:40:46;;;;;;;9.33;2.00;;;;;;;6.95;100.00;100367.31;5017523;28;20578;-72
2022/04/05 03:43:12;;;;;;;5.03;1.53;;;;;;;6.89;100.00;100357.41;5014355;28;20306;-71
2022/04/05 03:45:39;;;;;;;10.63;2.07;;;;;;;6.87;100.00;100368.25;5016494;28;20196;-71
2022/04/05 03:48:05;;;;;;;5.67;1.57;;;;;;;6.65;100.00;100354.00;5012866;28;20200;-71
2022/04/05 03:50:31;;;;;;;6.03;1.50;;;;;;;6.92;100.00;100373.03;5013595;28;20952;-71
2022/04/05 03:52:59;;;;;;;6.33;1.67;;;;;;;6.86;100.00;100366.59;4999646;28;21082;-71
2022/04/05 03:55:27;;;;;;;7.33;1.57;;;;;;;6.90;100.00;100370.53;5010946;28;20912;-72
2022/04/05 03:57:52;;;;;;;9.73;2.10;;;;;;;6.79;100.00;100341.69;5018368;28;20440;-71
2022/04/05 04:00:18;;;;;;;5.70;1.40;;;;;;;6.29;100.00;100316.66;5012459;28;20512;-71
2022/04/05 04:02:43;;;;;;;6.63;1.60;;;;;;;6.84;100.00;100370.47;5015127;28;20185;-72
2022/04/05 04:05:09;;;;;;;7.00;1.20;;;;;;;6.85;100.00;100380.09;5018737;28;20271;-71
2022/04/05 04:07:39;;;;;;;7.70;1.80;;;;;;;6.84;100.00;100360.63;5019372;28;20215;-71
2022/04/05 04:10:05;;;;;;;4.93;1.50;;;;;;;6.96;100.00;100388.47;5012385;28;20287;-71
2022/04/05 04:12:31;;;;;;;8.67;2.00;;;;;;;6.99;100.00;100361.41;5012115;28;20443;-71
2022/04/05 04:14:57;;;;;;;5.83;1.30;;;;;;;7.02;100.00;100374.38;5014025;28;20509;-71
2022/04/05 04:17:23;;;;;;;6.63;1.43;;;;;;;6.82;100.00;100377.81;5023008;28;20451;-71
2022/04/05 04:19:48;;;;;;;6.93;1.67;;;;;;;6.77;100.00;100355.22;5022340;28;20223;-72
2022/04/05 04:22:14;;;;;;;7.43;1.73;;;;;;;6.60;100.00;100332.44;5020729;28;20220;-71
2022/04/05 04:24:39;;;;;;;6.47;1.40;;;;;;;6.50;100.00;100311.38;5024770;28;20199;-71
2022/04/05 04:27:06;;;;;;;3.43;1.17;;;;;;;6.78;100.00;100350.72;5014646;28;20314;-71
2022/04/05 04:29:32;;;;;;;7.97;1.53;;;;;;;6.08;100.00;100253.47;5017244;28;20707;-72
2022/04/05 04:31:57;;;;;;;5.43;1.20;;;;;;;6.63;100.00;100337.41;5020545;28;20447;-71
2022/04/05 04:34:22;;;;;;;5.10;1.57;;;;;;;6.75;100.00;100351.09;5019515;28;20242;-71
2022/04/05 04:36:49;;;;;;;6.50;1.37;;;;;;;6.72;100.00;100348.78;5018356;28;20184;-71
2022/04/05 04:39:17;;;;;;;9.73;1.93;;;;;;;6.64;100.00;100325.72;5016192;28;20223;-71
2022/04/05 04:41:43;;;;;;;7.37;1.50;;;;;;;6.92;100.00;100371.19;5022861;28;20442;-72
2022/04/05 04:44:09;;;;;;;10.33;1.57;;;;;;;6.84;100.00;100381.94;5021932;28;21011;-72
2022/04/05 04:46:34;;;;;;;7.23;1.30;;;;;;;6.69;100.00;100338.50;5021916;28;20501;-72
2022/04/05 04:49:00;;;;;;;6.53;1.70;;;;;;;6.82;100.00;100377.81;5018415;28;20228;-72
2022/04/05 04:51:25;;;;;;;5.50;1.60;;;;;;;7.02;100.00;100381.56;5021681;28;20627;-72
2022/04/05 04:53:50;;;;;;;6.83;1.70;;;;;;;7.02;100.00;100384.22;5021439;28;20583;-71
2022/04/05 04:56:16;;;;;;;8.53;1.50;;;;;;;6.72;100.00;100343.47;5021865;28;20188;-72
2022/04/05 04:58:42;;;;;;;7.23;1.20;;;;;;;7.02;100.00;100385.03;5020363;28;20844;-73
2022/04/05 05:01:07;;;;;;;3.00;1.10;;;;;;;6.58;100.00;100385.09;5020880;28;20216;-71
2022/04/05 05:03:33;;;;;;;7.83;1.50;;;;;;;6.46;100.00;100312.78;5009619;28;20192;-71
2022/04/05 05:05:58;;;;;;;5.07;1.33;;;;;;;6.72;100.00;100362.13;5017162;28;20596;-71
2022/04/05 05:08:24;;;;;;;6.00;1.50;;;;;;;6.98;100.00;100396.28;5007861;28;20220;-71
2022/04/05 05:10:49;;;;;;;6.93;1.77;;;;;;;7.00;100.00;100380.91;5006358;28;20224;-72
2022/04/05 05:13:17;;;;;;;8.73;1.93;;;;;;;7.07;100.00;100387.16;5000504;28;20201;-73
2022/04/05 05:15:43;;;;;;;8.53;1.90;;;;;;;6.67;100.00;100337.84;5010600;28;20211;-73
2022/04/05 05:18:08;;;;;;;7.10;1.53;;;;;;;6.67;100.00;100337.84;5007754;28;21613;-72
2022/04/05 05:20:34;;;;;;;8.47;2.50;;;;;;;6.64;100.00;100335.56;4996827;28;20208;-72
2022/04/05 05:23:00;;;;;;;6.10;1.63;;;;;;;7.11;100.00;100387.59;5010170;28;20196;-72
2022/04/05 05:25:25;;;;;;;9.10;2.03;;;;;;;6.74;100.00;100352.94;5011921;28;20212;-72
2022/04/05 05:27:51;;;;;;;6.77;1.83;;;;;;;6.97;100.00;100381.28;5012674;28;20486;-71
2022/04/05 05:30:16;;;;;;;18.73;2.50;;;;;;;6.56;100.00;100347.13;5011790;28;20244;-73
2022/04/05 05:32:49;;;;;;;7.53;2.10;;;;;;;6.66;100.00;100395.66;5015859;28;20195;-73
2022/04/05 05:35:16;;;;;;;11.93;1.97;;;;;;;6.84;100.00;100403.28;5007757;28;20189;-72
2022/04/05 05:37:42;;;;;;;5.70;1.47;;;;;;;6.81;100.00;100387.66;5009761;28;20477;-72
2022/04/05 05:40:09;;;;;;;7.77;2.37;;;;;;;6.86;100.00;100400.44;5011862;28;20578;-73
2022/04/05 05:43:06;;;;;;;251.00;26.50;;;;;;;6.79;100.00;100358.50;5036177;28;20603;-72
2022/04/05 05:45:35;;;;;;;15.30;2.97;;;;;;;7.11;100.00;100403.59;5016050;28;20955;-78
2022/04/05 05:48:02;;;;;;;8.33;2.13;;;;;;;7.01;100.00;100401.25;5019320;28;20229;-81
2022/04/05 05:50:28;;;;;;;6.60;1.80;;;;;;;7.06;100.00;100408.66;5020252;28;20450;-82
2022/04/05 05:52:54;;;;;;;9.27;1.73;;;;;;;7.18;100.00;100407.19;5025520;28;21036;-75
2022/04/05 05:55:21;;;;;;;6.13;1.93;;;;;;;6.89;100.00;100373.41;5014429;28;20571;-74
2022/04/05 05:57:48;;;;;;;6.10;1.50;;;;;;;7.05;100.00;100423.03;5024505;28;20238;-74
2022/04/05 06:00:22;;;;;;;9.77;1.30;;;;;;;7.30;100.00;100427.03;5017393;28;20470;-75
2022/04/05 06:02:58;;;;;;;9.40;2.20;;;;;;;7.23;100.00;100428.78;5021151;28;20439;-74
2022/04/05 06:05:24;;;;;;;8.60;2.07;;;;;;;7.40;100.00;100422.22;5019648;28;20969;-74
2022/04/05 06:07:50;;;;;;;6.47;1.60;;;;;;;6.95;100.00;100368.16;5020832;28;20521;-74
2022/04/05 06:10:17;;;;;;;10.93;1.67;;;;;;;7.14;100.00;100384.56;5019684;28;20884;-74
2022/04/05 06:12:45;;;;;;;10.30;1.80;;;;;;;7.46;100.00;100426.81;5020552;28;20508;-74
2022/04/05 06:15:12;;;;;;;6.00;1.30;;;;;;;7.56;100.00;100431.03;5024464;28;20446;-74
2022/04/05 06:17:40;;;;;;;4.43;1.70;;;;;;;7.32;100.00;100411.69;5019371;28;20537;-74
2022/04/05 06:20:08;;;;;;;7.33;1.83;;;;;;;7.46;100.00;100436.66;5022345;28;20467;-73
2022/04/05 06:22:49;;;;;;;5.10;1.57;;;;;;;7.34;100.00;100441.66;5027365;28;20531;-74
2022/04/05 06:25:18;;;;;;;5.20;1.37;;;;;;;7.58;100.00;100439.66;5023297;28;20457;-76
2022/04/05 06:27:43;;;;;;;8.60;1.90;;;;;;;7.39;100.00;100403.75;5019828;28;20454;-76
2022/04/05 06:30:11;;;;;;;8.03;2.03;;;;;;;7.28;100.00;100382.88;5022761;28;20500;-76
2022/04/05 06:32:36;;;;;;;4.33;1.30;;;;;;;7.06;100.00;100379.34;5022336;28;20477;-75
2022/04/05 06:35:07;;;;;;;6.43;1.40;;;;;;;7.43;100.00;100429.88;5020900;28;20451;-77
2022/04/05 06:37:36;;;;;;;6.90;1.73;;;;;;;7.50;100.00;100429.94;5021460;28;20188;-76
2022/04/05 06:40:06;;;;;;;5.17;1.67;;;;;;;7.44;100.00;100428.03;5020243;28;20512;-76
2022/04/05 06:42:33;;;;;;;5.93;1.77;;;;;;;7.75;100.00;100442.91;5026296;28;20525;-76
2022/04/05 06:44:58;;;;;;;10.47;2.03;;;;;;;7.72;100.00;100437.94;5017185;28;20798;-75
2022/04/05 06:47:24;;;;;;;5.60;1.87;;;;;;;7.41;100.00;100402.53;5019413;28;20441;-76
2022/04/05 06:49:50;;;;;;;8.03;1.73;;;;;;;7.62;100.00;100427.59;5018066;28;20204;-76
2022/04/05 06:52:15;;;;;;;5.60;1.40;;;;;;;7.67;100.00;100417.19;5003977;28;20269;-76
2022/04/05 06:54:41;;;;;;;15.20;2.13;;;;;;;7.73;100.00;100451.13;4998547;28;20188;-75
2022/04/05 06:57:07;;;;;;;6.37;1.87;;;;;;;7.60;100.00;100411.75;5006024;28;20195;-74
2022/04/05 06:59:32;;;;;;;5.73;2.10;;;;;;;7.77;100.00;100441.69;4994341;28;20255;-75
2022/04/05 07:01:57;;;;;;;5.80;1.90;;;;;;;7.65;100.00;100429.88;5004945;28;20188;-75
2022/04/05 07:04:23;;;;;;;7.63;1.43;;;;;;;7.77;100.00;100451.56;4999796;28;20888;-75
2022/04/05 07:06:48;;;;;;;4.83;1.50;;;;;;;7.21;100.00;100388.97;5007246;28;21005;-75
2022/04/05 07:09:13;;;;;;;8.57;1.40;;;;;;;7.42;100.00;100374.81;5006700;28;20204;-75
2022/04/05 07:11:39;;;;;;;6.70;1.40;;;;;;;7.57;100.00;100440.66;5007712;28;20440;-75
2022/04/05 07:14:04;;;;;;;3.47;1.33;;;;;;;7.66;100.00;100420.84;5005636;28;20819;-74
2022/04/05 07:16:30;;;;;;;5.80;1.63;;;;;;;7.30;100.00;100352.34;5003467;28;21032;-74
2022/04/05 07:18:55;;;;;;;3.97;1.50;;;;;;;7.66;100.00;100386.97;5014936;28;20219;-75
2022/04/05 07:21:21;;;;;;;8.30;2.00;;;;;;;7.80;100.00;100413.81;5009909;28;20188;-74
2022/04/05 07:23:47;;;;;;;6.17;1.90;;;;;;;7.14;100.00;100329.38;5015090;28;20192;-76
2022/04/05 07:26:13;;;;;;;8.47;1.70;;;;;;;8.04;100.00;100439.28;5011150;28;21269;-76
2022/04/05 07:28:38;;;;;;;5.13;1.20;;;;;;;7.80;100.00;100437.84;5006307;28;21144;-77
2022/04/05 07:31:04;;;;;;;10.13;1.97;;;;;;;7.48;100.00;100382.06;5010550;28;20206;-76
2022/04/05 07:33:29;;;;;;;5.27;1.53;;;;;;;7.66;100.00;100426.19;5004992;28;20201;-77
2022/04/05 07:35:55;;;;;;;13.27;1.90;;;;;;;7.29;100.00;100406.72;5017073;28;20271;-77
2022/04/05 07:38:20;;;;;;;8.47;1.97;;;;;;;7.55;100.00;100434.69;5011152;28;20357;-74
2022/04/05 07:40:49;;;;;;;7.40;1.90;;;;;;;7.24;100.00;100363.75;5006940;28;20185;-77
2022/04/05 07:43:24;;;;;;;6.10;1.83;;;;;;;7.78;100.00;100430.03;4993310;28;20220;-77
2022/04/05 07:45:50;;;;;;;7.97;1.77;;;;;;;7.97;100.00;100433.06;5002898;28;20442;-80
2022/04/05 07:48:20;;;;;;;8.07;2.07;;;;;;;7.47;100.00;100366.25;5002857;28;20462;-80
2022/04/05 07:50:47;;;;;;;7.70;1.70;;;;;;;7.85;100.00;100454.94;5008630;28;20451;-80
2022/04/05 07:53:13;;;;;;;8.53;1.70;;;;;;;7.82;100.00;100438.47;5005997;28;20558;-77
2022/04/05 07:55:38;;;;;;;5.40;1.70;;;;;;;7.56;100.00;100381.13;5007057;28;20517;-79
2022/04/05 07:58:04;;;;;;;9.23;1.70;;;;;;;7.58;100.00;100389.78;5005730;28;20189;-79
2022/04/05 08:00:29;;;;;;;11.70;1.83;;;;;;;7.15;100.00;100324.91;5004576;28;20673;-79
2022/04/05 08:02:55;;;;;;;12.47;1.83;;;;;;;7.79;100.00;100450.34;5008057;28;20250;-79
2022/04/05 08:05:23;;;;;;;11.60;1.70;;;;;;;7.09;100.00;100334.47;5007948;28;20189;-79
2022/04/05 08:07:48;;;;;;;6.53;1.80;;;;;;;7.50;100.00;100431.78;5005450;28;20447;-80
2022/04/05 08:10:14;;;;;;;9.53;1.60;;;;;;;7.51;100.00;100388.88;5004149;28;20470;-80
2022/04/05 08:12:44;;;;;;;4.10;1.70;;;;;;;7.71;100.00;100405.09;5008007;28;20232;-80
2022/04/05 08:15:12;;;;;;;8.97;1.67;;;;;;;8.00;100.00;100435.34;5010318;28;20313;-79
2022/04/05 08:17:38;;;;;;;8.47;1.67;;;;;;;7.74;100.00;100386.03;5005687;28;20966;-80
2022/04/05 08:20:05;;;;;;;9.20;1.83;;;;;;;8.03;100.00;100425.09;5001576;28;20479;-80
2022/04/05 08:22:31;;;;;;;4.97;1.47;;;;;;;7.85;100.00;100409.53;5006609;28;20270;-79
2022/04/05 08:24:56;;;;;;;7.13;1.50;;;;;;;7.67;100.00;100375.28;4996341;28;22036;-79
2022/04/05 08:27:22;;;;;;;8.47;1.33;;;;;;;7.16;100.00;100322.03;4997590;28;20191;-78
2022/04/05 08:29:47;;;;;;;6.37;1.50;;;;;;;7.66;100.00;100362.13;4987152;28;20220;-78
2022/04/05 08:32:12;;;;;;;13.20;1.90;;;;;;;8.06;100.00;100424.72;4998776;28;20556;-78
2022/04/05 08:34:41;;;;;;;9.93;1.90;;;;;;;7.94;100.00;100436.94;4997256;22;20283;-70
2022/04/05 08:37:08;;;;;;;7.90;1.67;;;;;;;7.97;100.00;100441.91;4975057;28;20276;-71
2022/04/05 08:39:34;;;;;;;7.93;1.80;;;;;;;7.89;100.00;100453.53;4979721;28;20439;-71
2022/04/05 08:41:59;;;;;;;9.40;2.00;;;;;;;7.82;100.00;100441.97;4974991;28;20448;-71
2022/04/05 08:44:26;;;;;;;9.00;1.53;;;;;;;7.96;100.00;100440.25;4975639;28;20472;-69
2022/04/05 08:46:52;;;;;;;6.23;1.67;;;;;;;8.03;100.00;100442.97;4979450;28;20225;-69
2022/04/05 08:49:19;;;;;;;5.87;1.30;;;;;;;7.63;100.00;100386.53;4973291;28;20480;-69
2022/04/05 08:51:44;;;;;;;5.27;1.40;;;;;;;7.90;100.00;100433.00;4974017;28;20472;-69
2022/04/05 08:54:10;;;;;;;10.40;1.90;;;;;;;7.96;100.00;100426.91;4975551;28;20527;-69
2022/04/05 08:56:35;;;;;;;7.90;1.57;;;;;;;7.90;100.00;100423.16;4972411;28;20190;-69
2022/04/05 08:59:01;;;;;;;6.67;1.60;;;;;;;7.89;100.00;100428.66;4970588;28;20198;-69
2022/04/05 09:01:29;;;;;;;7.90;1.87;;;;;;;7.54;100.00;100403.69;4976739;28;20220;-69
2022/04/05 09:03:56;;;;;;;7.00;1.27;;;;;;;7.44;100.00;100391.50;4972301;28;20589;-69
2022/04/05 09:06:32;;;;;;;7.60;1.60;;;;;;;7.43;100.00;100386.31;4975057;28;20441;-69
2022/04/05 09:09:11;;;;;;;10.13;2.00;;;;;;;8.06;100.00;100443.41;4969575;28;20540;-69
2022/04/05 09:11:46;;;;;;;7.40;1.60;;;;;;;8.10;100.00;100452.72;4975186;28;20483;-69
2022/04/05 09:14:12;;;;;;;6.80;1.77;;;;;;;8.07;100.00;100460.25;4969770;28;20475;-69
2022/04/05 09:16:37;;;;;;;75.33;8.87;;;;;;;7.92;100.00;100441.63;4967627;28;20472;-70
2022/04/05 09:19:13;;;;;;;9.27;2.27;;;;;;;8.00;100.00;100451.38;4971784;28;20191;-69
2022/04/05 09:22:09;;;;;;;5.50;1.90;;;;;;;7.95;100.00;100457.28;4966877;28;20567;-69
2022/04/05 09:24:45;;;;;;;9.70;1.77;;;;;;;7.84;100.00;100436.41;4967511;28;21143;-69
2022/04/05 09:27:11;;;;;;;8.43;2.27;;;;;;;8.03;100.00;100456.34;4970710;28;20439;-69
2022/04/05 09:29:44;;;;;;;6.47;1.50;;;;;;;8.06;100.00;100462.13;4973121;28;20536;-71
2022/04/05 09:32:30;;;;;;;10.10;2.07;;;;;;;8.07;100.00;100463.78;4976854;28;20498;-71
2022/04/05 09:34:55;;;;;;;4.10;1.23;;;;;;;8.19;100.00;100452.56;4974453;28;20476;-71
2022/04/05 09:37:26;;;;;;;5.23;1.17;;;;;;;7.97;100.00;100419.72;4975275;28;20952;-71
2022/04/05 09:39:51;;;;;;;13.00;1.67;;;;;;;8.17;100.00;100454.63;4976478;28;20272;-70
2022/04/05 09:42:16;;;;;;;7.47;2.00;;;;;;;8.04;100.00;100442.81;4974981;28;20440;-70
2022/04/05 09:44:43;;;;;;;8.83;1.73;;;;;;;8.05;100.00;100457.81;4974736;28;20220;-70
2022/04/05 09:47:10;;;;;;;7.60;1.50;;;;;;;8.07;100.00;100447.75;4977182;28;20186;-69
2022/04/05 09:49:40;;;;;;;12.67;2.40;;;;;;;8.13;100.00;100447.00;4974519;28;20852;-70
2022/04/05 09:52:25;;;;;;;6.03;1.63;;;;;;;8.10;100.00;100431.34;4973442;28;20481;-70
2022/04/05 09:54:51;;;;;;;7.57;1.57;;;;;;;8.20;100.00;100439.03;4978502;28;21091;-71
2022/04/05 09:57:29;;;;;;;5.30;1.20;;;;;;;8.11;100.00;100429.50;4973117;28;20816;-71
2022/04/05 10:00:12;;;;;;;10.10;1.90;;;;;;;7.93;100.00;100401.41;4977907;28;20441;-70
2022/04/05 10:03:00;;;;;;;8.50;1.70;;;;;;;8.21;100.00;100448.69;4969399;28;20456;-70
2022/04/05 10:05:28;;;;;;;5.57;1.60;;;;;;;8.11;100.00;100451.69;4988107;28;20487;-71
2022/04/05 10:07:54;;;;;;;4.80;1.47;;;;;;;8.04;100.00;100437.47;4971094;28;20441;-71
2022/04/05 10:10:20;;;;;;;9.70;1.53;;;;;;;7.94;100.00;100458.31;4967547;28;20455;-70
2022/04/05 10:12:47;;;;;;;7.37;1.50;;;;;;;7.69;100.00;100401.78;4976923;28;20492;-70
2022/04/05 10:15:13;;;;;;;5.67;2.13;;;;;;;7.95;100.00;100451.94;4964065;28;20468;-69
2022/04/05 10:17:43;;;;;;;8.20;1.70;;;;;;;7.86;100.00;100432.53;4967485;28;20449;-70
2022/04/05 10:20:11;;;;;;;8.00;1.77;;;;;;;8.03;100.00;100427.78;4967524;28;20197;-70
2022/04/05 10:22:38;;;;;;;5.80;1.50;;;;;;;8.11;100.00;100430.31;4972227;28;21042;-71
2022/04/05 10:25:04;;;;;;;8.40;2.10;;;;;;;7.57;100.00;100413.97;4968825;28;21036;-70
2022/04/05 10:27:30;;;;;;;7.20;1.70;;;;;;;8.05;100.00;100444.44;4972899;28;20450;-71
2022/04/05 10:30:36;;;;;;;6.10;1.37;;;;;;;7.70;100.00;100398.94;4976120;28;20460;-71
2022/04/05 10:33:12;;;;;;;4.70;1.50;;;;;;;8.05;100.00;100455.13;4973315;28;20709;-70
2022/04/05 10:35:53;;;;;;;7.13;1.20;;;;;;;7.91;100.00;100445.34;4969184;28;20907;-70
2022/04/05 10:38:19;;;;;;;6.13;1.60;;;;;;;7.76;100.00;100417.88;4969701;28;20441;-70
2022/04/05 10:41:12;;;;;;;5.07;1.43;;;;;;;8.13;100.00;100459.53;4974695;28;20864;-70
2022/04/05 10:43:41;;;;;;;5.57;1.10;;;;;;;7.97;100.00;100447.25;4970530;28;20240;-70
2022/04/05 10:46:08;;;;;;;3.63;1.13;;;;;;;7.93;100.00;100452.16;4974314;28;20459;-71
2022/04/05 10:48:34;;;;;;;3.93;1.03;;;;;;;7.87;100.00;100418.19;4974305;28;20440;-71
2022/04/05 10:50:59;;;;;;;3.23;0.73;;;;;;;8.08;100.00;100443.25;4972720;28;20456;-71
2022/04/05 10:54:17;;;;;;;5.63;0.83;;;;;;;7.94;100.00;100415.56;4972553;28;20468;-71
2022/04/05 10:56:26;;;;;;;1.10;0.60;;;;;;;8.21;100.00;100432.66;4966368;28;20256;-71
2022/04/05 10:58:52;;;;;;;2.03;0.70;;;;;;;8.23;100.00;100440.47;4972332;28;20856;-71
2022/04/05 11:01:22;;;;;;;3.23;0.80;;;;;;;8.18;100.00;100435.72;4972673;28;20198;-70
2022/04/05 11:04:09;;;;;;;3.93;0.70;;;;;;;8.02;100.00;100449.34;4973876;28;20232;-71
2022/04/05 11:07:02;;;;;;;3.47;0.67;;;;;;;8.03;100.00;100451.81;4972661;28;24603;-71
2022/04/05 11:09:34;;;;;;;4.33;0.97;;;;;;;8.14;100.00;100443.28;4977411;28;20444;-71
2022/04/05 11:12:02;;;;;;;2.43;0.80;;;;;;;7.70;100.00;100366.06;4991620;28;20491;-71
2022/04/05 11:14:58;;;;;;;1.97;0.70;;;;;;;7.94;100.00;100418.25;4964361;28;20470;-71
2022/04/05 11:17:26;;;;;;;2.27;0.80;;;;;;;7.95;100.00;100453.78;4971223;28;20454;-71
2022/04/05 11:19:55;;;;;;;3.20;0.80;;;;;;;7.83;100.00;100398.22;4972688;28;20464;-71
2022/04/05 11:22:20;;;;;;;2.40;0.70;;;;;;;8.12;100.00;100448.00;4988153;28;20472;-71
2022/04/05 11:25:04;;;;;;;1.00;0.60;;;;;;;8.09;100.00;100445.69;4974603;28;20465;-72
2022/04/05 11:27:34;;;;;;;2.50;0.80;;;;;;;7.97;100.00;100441.06;4972543;28;20643;-71